createdAt,value
2024-01-05T00:09:32.080Z,8.08
2024-01-05T00:19:36.620Z,7.80
2024-01-05T00:29:39.658Z,8.00
2024-01-05T00:39:43.814Z,8.30
2024-01-05T00:49:47.102Z,8.19
2024-01-05T00:59:52.055Z,7.98
2024-01-05T01:09:54.931Z,7.80
2024-01-05T01:19:59.574Z,7.55
2024-01-05T01:30:02.646Z,7.38
2024-01-05T01:40:09.868Z,7.16
2024-01-05T01:50:12.811Z,6.87
2024-01-05T02:00:17.507Z,6.56
2024-01-05T02:10:22.191Z,6.17
2024-01-05T02:20:26.340Z,5.92
2024-01-05T02:30:30.607Z,5.76
2024-01-05T02:40:33.777Z,5.70
2024-01-05T02:50:37.873Z,6.05
2024-01-05T03:00:40.909Z,6.16
2024-01-05T03:10:45.139Z,6.55
2024-01-05T03:20:48.284Z,6.54
2024-01-05T03:30:52.966Z,6.57
2024-01-05T03:40:55.878Z,6.67
2024-01-05T03:51:00.053Z,6.78
2024-01-05T04:01:04.024Z,6.84
2024-01-05T04:11:08.204Z,6.92
2024-01-05T04:21:12.200Z,7.05
2024-01-05T04:31:16.523Z,7.07
2024-01-05T04:41:20.074Z,6.82
2024-01-05T04:51:24.374Z,6.96
2024-01-05T05:01:27.316Z,7.17
2024-01-05T05:11:31.808Z,7.38
2024-01-05T05:21:35.384Z,7.51
2024-01-05T05:31:39.514Z,7.50
2024-01-05T05:41:42.522Z,7.78
2024-01-05T05:51:47.486Z,7.82
2024-01-05T06:01:51.006Z,7.72
2024-01-05T06:11:55.372Z,7.92
2024-01-05T06:22:00.808Z,8.04
2024-01-05T06:32:05.480Z,8.14
2024-01-05T06:42:09.314Z,8.20
2024-01-05T06:52:13.707Z,8.16
2024-01-05T07:02:16.456Z,7.87
2024-01-05T07:12:20.673Z,7.82
2024-01-05T07:22:23.961Z,7.74
2024-01-05T07:32:28.071Z,7.90
2024-01-05T07:42:32.082Z,7.45
2024-01-05T07:52:36.448Z,7.68
2024-01-05T08:02:39.199Z,7.99
2024-01-05T08:12:43.769Z,8.12
2024-01-05T08:22:46.589Z,8.28
2024-01-05T08:32:55.704Z,8.49
2024-01-05T08:42:59.244Z,8.56
2024-01-05T08:53:03.431Z,8.58
2024-01-05T09:03:06.422Z,8.61
2024-01-05T09:13:10.607Z,10.89
2024-01-05T09:23:14.220Z,12.17
2024-01-05T09:33:20.693Z,12.30
2024-01-05T09:43:24.071Z,11.86
2024-01-05T09:53:48.210Z,11.73
2024-01-05T10:04:11.167Z,11.49
2024-01-05T10:14:35.689Z,17.12
2024-01-05T10:25:15.407Z,16.24
2024-01-05T10:35:39.471Z,12.68
2024-01-05T10:46:03.456Z,11.60
2024-01-05T10:56:30.064Z,12.70
2024-01-05T11:06:53.907Z,15.55
2024-01-05T11:17:49.606Z,16.42
2024-01-05T11:28:33.824Z,12.98
2024-01-05T11:38:58.342Z,11.50
2024-01-05T11:49:38.017Z,11.50
2024-01-05T12:00:03.730Z,11.02
2024-01-05T12:10:28.350Z,10.05
2024-01-05T12:20:55.113Z,9.95
2024-01-05T12:31:19.221Z,9.83
2024-01-05T12:41:46.892Z,9.59
2024-01-05T12:52:10.099Z,9.47
2024-01-05T13:02:40.135Z,9.41
2024-01-05T13:13:03.282Z,9.63
2024-01-05T13:23:29.325Z,9.71
2024-01-05T13:33:52.263Z,9.47
2024-01-05T13:44:17.424Z,10.01
2024-01-05T13:54:40.318Z,10.04
2024-01-05T14:05:10.597Z,9.99
2024-01-05T14:15:33.360Z,10.08
2024-01-05T14:25:58.240Z,9.18
2024-01-05T14:36:21.105Z,8.80
2024-01-05T14:46:45.317Z,8.70
2024-01-05T14:57:08.077Z,8.80
2024-01-05T15:07:32.217Z,8.51
2024-01-05T15:17:55.301Z,7.91
2024-01-05T15:28:20.042Z,7.67
2024-01-05T15:38:43.223Z,7.49
2024-01-05T15:49:07.719Z,7.51
2024-01-05T15:59:33.867Z,7.45
2024-01-05T16:09:57.916Z,7.52
2024-01-05T16:20:20.943Z,7.40
2024-01-05T16:30:45.137Z,7.24
2024-01-05T16:41:09.771Z,7.29
2024-01-05T16:51:33.985Z,7.45
2024-01-05T17:01:56.755Z,7.55
2024-01-05T17:12:20.837Z,7.61
2024-01-05T17:22:43.540Z,7.65
2024-01-05T17:33:07.891Z,7.34
2024-01-05T17:43:30.718Z,7.47
2024-01-05T17:54:00.983Z,7.41
2024-01-05T18:04:26.415Z,7.49
2024-01-05T18:14:32.153Z,7.65
2024-01-05T18:24:35.049Z,7.53
2024-01-05T18:34:45.872Z,7.68
2024-01-05T18:44:59.531Z,7.17
2024-01-05T18:55:11.213Z,7.68
2024-01-05T19:05:15.157Z,7.65
2024-01-05T19:15:19.296Z,7.49
2024-01-05T19:25:22.081Z,7.31
2024-01-05T19:35:26.205Z,7.49
2024-01-05T19:45:29.384Z,7.53
2024-01-05T19:55:34.465Z,7.53
2024-01-05T20:05:37.412Z,7.55
2024-01-05T20:15:41.842Z,7.48
2024-01-05T20:25:57.366Z,7.57
2024-01-05T20:36:01.671Z,7.57
2024-01-05T20:46:04.584Z,7.61
2024-01-05T20:56:08.898Z,7.70
2024-01-05T21:06:11.908Z,7.67
2024-01-05T21:16:16.755Z,7.71
2024-01-05T21:26:19.558Z,7.79
2024-01-05T21:36:23.998Z,7.80
2024-01-05T21:46:27.380Z,7.90
2024-01-05T21:56:31.748Z,7.88
2024-01-05T22:06:35.136Z,7.88
2024-01-05T22:16:40.925Z,7.84
2024-01-05T22:26:44.415Z,7.14
2024-01-05T22:36:51.005Z,7.84
2024-01-05T22:46:54.159Z,7.83
2024-01-05T22:56:58.769Z,7.61
2024-01-05T23:07:01.986Z,7.66
2024-01-05T23:17:09.493Z,7.65
2024-01-05T23:27:12.836Z,7.70
2024-01-05T23:37:18.094Z,7.83
2024-01-05T23:47:21.053Z,7.69
2024-01-05T23:57:29.290Z,7.80
